createdAt,value
2023-01-02T00:01:39.710Z,73.17
2023-01-02T00:04:07.378Z,72.90
2023-01-02T00:06:35.079Z,76.03
2023-01-02T00:09:04.309Z,74.80
2023-01-02T00:11:32.014Z,78.77
2023-01-02T00:13:59.649Z,91.20
2023-01-02T00:16:27.336Z,79.37
2023-01-02T00:18:55.068Z,76.87
2023-01-02T00:21:22.773Z,75.93
2023-01-02T00:23:50.385Z,61.00
2023-01-02T00:26:19.418Z,50.97
2023-01-02T00:28:47.039Z,54.40
2023-01-02T00:31:15.175Z,54.47
2023-01-02T00:33:43.531Z,70.10
2023-01-02T00:36:11.852Z,56.60
2023-01-02T00:38:41.039Z,65.07
2023-01-02T00:41:08.753Z,49.33
2023-01-02T00:43:37.854Z,47.00
2023-01-02T00:46:11.218Z,46.53
2023-01-02T00:48:39.898Z,52.37
2023-01-02T00:51:07.557Z,50.83
2023-01-02T00:53:35.197Z,46.07
2023-01-02T00:56:02.885Z,38.67
2023-01-02T00:58:30.547Z,39.10
2023-01-02T01:00:59.562Z,48.37
2023-01-02T01:03:27.286Z,52.60
2023-01-02T01:05:54.904Z,54.53
2023-01-02T01:08:22.582Z,64.87
2023-01-02T01:13:47.859Z,73.47
2023-01-02T01:16:17.652Z,78.67
2023-01-02T01:18:46.053Z,95.77
2023-01-02T01:21:14.368Z,102.90
2023-01-02T01:23:42.149Z,106.80
2023-01-02T01:26:10.985Z,99.23
2023-01-02T01:28:38.906Z,108.20
2023-01-02T01:31:07.260Z,106.17
2023-01-02T01:33:36.605Z,111.90
2023-01-02T01:36:04.655Z,134.00
2023-01-02T01:38:32.343Z,183.23
2023-01-02T01:41:00.541Z,178.87
2023-01-02T01:43:38.112Z,187.00
2023-01-02T01:46:07.237Z,174.83
2023-01-02T01:48:36.581Z,143.03
2023-01-02T01:51:04.408Z,134.20
2023-01-02T01:53:32.670Z,145.57
2023-01-02T01:56:02.637Z,146.47
2023-01-02T01:58:31.353Z,147.93
2023-01-02T02:00:59.551Z,151.50
2023-01-02T02:03:29.815Z,146.33
2023-01-02T02:06:00.680Z,143.47
2023-01-02T02:08:31.432Z,184.60
2023-01-02T02:10:59.798Z,150.77
2023-01-02T02:13:27.611Z,142.37
2023-01-02T02:16:00.830Z,162.40
2023-01-02T02:18:35.364Z,144.47
2023-01-02T02:21:13.362Z,153.87
2023-01-02T02:23:56.087Z,142.27
2023-01-02T02:26:45.277Z,141.17
2023-01-02T02:29:36.616Z,130.47
2023-01-02T02:32:09.315Z,137.47
2023-01-02T02:34:41.232Z,143.17
2023-01-02T02:37:14.449Z,137.63
2023-01-02T02:39:46.766Z,141.30
2023-01-02T02:42:21.080Z,139.20
2023-01-02T02:44:55.333Z,145.37
2023-01-02T02:47:30.606Z,139.50
2023-01-02T02:50:02.938Z,145.47
2023-01-02T02:52:32.794Z,128.23
2023-01-02T02:55:02.493Z,141.30
2023-01-02T02:57:31.499Z,138.80
2023-01-02T02:59:59.258Z,141.50
2023-01-02T03:02:28.378Z,135.57
2023-01-02T03:04:58.079Z,122.17
2023-01-02T03:07:28.044Z,131.17
2023-01-02T03:10:00.712Z,126.60
2023-01-02T03:12:35.723Z,130.00
2023-01-02T03:15:08.821Z,155.80
2023-01-02T03:17:43.011Z,140.83
2023-01-02T03:20:14.040Z,139.97
2023-01-02T03:22:44.361Z,117.97
2023-01-02T03:25:13.103Z,139.87
2023-01-02T03:27:43.291Z,126.03
2023-01-02T03:30:14.927Z,153.20
2023-01-02T03:32:45.424Z,132.47
2023-01-02T03:35:15.556Z,112.20
2023-01-02T03:37:47.351Z,106.60
2023-01-02T03:40:17.944Z,103.40
2023-01-02T03:42:46.962Z,105.03
2023-01-02T03:45:17.305Z,116.87
2023-01-02T03:47:50.393Z,139.30
2023-01-02T03:50:20.900Z,104.63
2023-01-02T03:52:48.643Z,150.90
2023-01-02T03:55:16.611Z,115.30
2023-01-02T03:57:55.188Z,132.90
2023-01-02T04:00:27.287Z,138.10
2023-01-02T04:03:00.376Z,125.93
2023-01-02T04:05:31.478Z,110.23
2023-01-02T04:08:01.056Z,109.50
2023-01-02T04:10:29.551Z,155.30
2023-01-02T04:12:59.668Z,158.47
2023-01-02T04:15:28.433Z,160.90
2023-01-02T04:17:58.251Z,159.87
2023-01-02T04:20:29.240Z,152.23
2023-01-02T04:23:00.823Z,127.97
2023-01-02T04:25:31.684Z,123.60
2023-01-02T04:28:00.732Z,126.33
2023-01-02T04:30:29.766Z,141.57
2023-01-02T04:32:59.559Z,143.10
2023-01-02T04:35:27.548Z,132.97
2023-01-02T04:37:55.153Z,127.50
2023-01-02T04:40:24.585Z,121.60
2023-01-02T04:42:52.473Z,146.50
2023-01-02T04:45:20.093Z,139.93
2023-01-02T04:47:48.898Z,157.70
2023-01-02T04:50:18.202Z,95.00
2023-01-02T04:52:45.863Z,97.37
2023-01-02T04:55:13.688Z,101.10
2023-01-02T04:57:41.312Z,104.47
2023-01-02T05:00:10.181Z,106.90
2023-01-02T05:02:38.447Z,95.30
2023-01-02T05:05:07.319Z,87.17
2023-01-02T05:07:36.507Z,85.33
2023-01-02T05:10:04.454Z,103.13
2023-01-02T05:12:34.695Z,88.67
2023-01-02T05:15:02.816Z,96.43
2023-01-02T05:17:30.684Z,95.83
2023-01-02T05:19:58.761Z,88.07
2023-01-02T05:22:43.507Z,87.13
2023-01-02T05:25:12.484Z,94.30
2023-01-02T05:27:41.079Z,88.93
2023-01-02T05:30:09.377Z,73.17
2023-01-02T05:32:37.144Z,82.50
2023-01-02T05:35:05.360Z,77.47
2023-01-02T05:37:33.058Z,77.07
2023-01-02T05:40:00.733Z,90.80
2023-01-02T05:42:29.739Z,80.77
2023-01-02T05:44:57.432Z,72.23
2023-01-02T05:47:25.106Z,59.80
2023-01-02T05:49:52.738Z,55.87
2023-01-02T05:52:20.424Z,58.73
2023-01-02T05:54:48.087Z,57.13
2023-01-02T05:57:16.451Z,64.47
2023-01-02T05:59:45.536Z,55.23
2023-01-02T06:02:13.231Z,58.83
2023-01-02T06:04:40.939Z,56.60
2023-01-02T06:07:08.593Z,54.97
2023-01-02T06:09:36.225Z,79.37
2023-01-02T06:12:03.919Z,77.60
2023-01-02T06:14:31.641Z,76.93
2023-01-02T06:17:00.667Z,61.27
2023-01-02T06:19:28.961Z,56.87
2023-01-02T06:21:56.581Z,62.80
2023-01-02T06:24:24.193Z,84.03
2023-01-02T06:26:51.922Z,65.90
2023-01-02T06:29:19.584Z,54.63
2023-01-02T06:31:51.267Z,59.43
2023-01-02T06:34:20.996Z,57.67
2023-01-02T06:36:48.628Z,46.07
2023-01-02T06:39:16.281Z,53.57
2023-01-02T06:41:43.942Z,50.77
2023-01-02T06:44:13.197Z,53.80
2023-01-02T06:46:40.869Z,51.73
2023-01-02T06:49:08.536Z,57.43
2023-01-02T06:51:37.592Z,55.40
2023-01-02T06:54:05.630Z,54.30
2023-01-02T06:56:33.332Z,43.50
2023-01-02T06:59:00.984Z,51.07
2023-01-02T07:01:30.010Z,47.80
2023-01-02T07:03:57.777Z,46.27
2023-01-02T07:06:27.826Z,43.03
2023-01-02T07:08:57.025Z,46.17
2023-01-02T07:11:25.788Z,40.60
2023-01-02T07:13:54.772Z,43.37
2023-01-02T07:16:23.097Z,47.77
2023-01-02T07:18:52.467Z,50.73
2023-01-02T07:21:20.147Z,43.93
2023-01-02T07:23:47.977Z,40.33
2023-01-02T07:26:17.229Z,45.90
2023-01-02T07:28:44.927Z,41.10
2023-01-02T07:31:14.167Z,42.47
2023-01-02T07:33:41.987Z,66.37
2023-01-02T07:36:11.453Z,69.17
2023-01-02T07:38:39.546Z,115.83
2023-01-02T07:41:13.340Z,89.43
2023-01-02T07:43:42.425Z,72.23
2023-01-02T07:46:10.262Z,50.13
2023-01-02T07:48:37.947Z,65.20
2023-01-02T07:51:06.713Z,69.97
2023-01-02T07:53:34.861Z,64.13
2023-01-02T07:56:02.920Z,68.47
2023-01-02T07:58:30.655Z,49.23
2023-01-02T08:01:05.090Z,42.50
2023-01-02T08:03:33.563Z,39.93
2023-01-02T08:06:04.664Z,55.13
2023-01-02T08:08:32.362Z,37.53
2023-01-02T08:11:00.171Z,44.87
2023-01-02T08:13:27.841Z,55.70
2023-01-02T08:15:55.449Z,48.50
2023-01-02T08:18:24.575Z,46.23
2023-01-02T08:20:52.243Z,48.57
2023-01-02T08:23:19.913Z,40.00
2023-01-02T08:25:50.340Z,46.07
2023-01-02T08:28:21.803Z,37.97
2023-01-02T08:30:49.547Z,41.10
2023-01-02T08:33:17.218Z,39.60
2023-01-02T08:35:46.241Z,34.77
2023-01-02T08:38:14.049Z,36.10
2023-01-02T08:40:41.711Z,36.03
2023-01-02T08:43:09.592Z,34.27
2023-01-02T08:45:37.546Z,28.93
2023-01-02T08:48:20.887Z,36.03
2023-01-02T08:50:50.851Z,31.77
2023-01-02T08:53:18.580Z,32.30
2023-01-02T08:55:46.279Z,34.70
2023-01-02T08:58:14.252Z,36.33
2023-01-02T09:00:41.924Z,41.10
2023-01-02T09:03:09.628Z,38.47
2023-01-02T09:05:37.346Z,53.00
2023-01-02T09:08:06.454Z,49.40
2023-01-02T09:10:34.143Z,49.13
2023-01-02T09:13:01.809Z,57.57
2023-01-02T09:15:29.639Z,46.00
2023-01-02T09:17:57.327Z,55.83
2023-01-02T09:20:26.704Z,54.40
2023-01-02T09:22:54.348Z,42.97
2023-01-02T09:25:24.595Z,53.93
2023-01-02T09:27:52.611Z,48.23
2023-01-02T09:30:20.427Z,50.73
2023-01-02T09:32:49.183Z,49.97
2023-01-02T09:35:17.026Z,45.13
2023-01-02T09:37:44.639Z,48.10
2023-01-02T09:40:14.507Z,46.80
2023-01-02T09:42:44.139Z,47.37
2023-01-02T09:45:12.222Z,48.33
2023-01-02T09:47:40.660Z,46.63
2023-01-02T09:50:12.060Z,43.63
2023-01-02T09:52:41.308Z,44.77
2023-01-02T09:55:15.137Z,48.43
2023-01-02T09:57:46.382Z,43.53
2023-01-02T10:00:17.411Z,45.60
2023-01-02T10:02:49.976Z,43.37
2023-01-02T10:05:43.235Z,46.13
2023-01-02T10:08:14.271Z,47.70
2023-01-02T10:10:42.883Z,43.30
2023-01-02T10:13:14.752Z,42.43
2023-01-02T10:15:43.718Z,43.63
2023-01-02T10:18:15.332Z,39.10
2023-01-02T10:20:44.747Z,40.80
2023-01-02T10:23:14.290Z,40.10
2023-01-02T10:25:48.100Z,41.63
2023-01-02T10:28:25.814Z,38.00
2023-01-02T10:30:55.871Z,37.97
2023-01-02T10:33:26.031Z,41.33
2023-01-02T10:35:55.379Z,35.87
2023-01-02T10:38:23.352Z,37.17
2023-01-02T10:40:51.745Z,38.63
2023-01-02T10:43:19.532Z,41.10
2023-01-02T10:45:48.601Z,37.03
2023-01-02T10:48:16.224Z,38.77
2023-01-02T10:50:47.558Z,43.63
2023-01-02T10:53:21.553Z,41.17
2023-01-02T10:55:49.312Z,37.60
2023-01-02T10:58:20.686Z,37.03
2023-01-02T11:00:50.377Z,43.40
2023-01-02T11:03:18.939Z,41.77
2023-01-02T11:05:48.157Z,39.97
2023-01-02T11:08:16.887Z,42.73
2023-01-02T11:10:45.413Z,40.63
2023-01-02T11:13:14.206Z,40.23
2023-01-02T11:15:48.481Z,42.57
2023-01-02T11:18:21.901Z,41.00
2023-01-02T11:20:50.960Z,37.97
2023-01-02T11:23:22.265Z,42.37
2023-01-02T11:25:51.517Z,38.90
2023-01-02T11:28:20.573Z,43.53
2023-01-02T11:30:48.886Z,44.73
2023-01-02T11:33:22.480Z,44.67
2023-01-02T11:35:51.951Z,44.27
2023-01-02T11:38:29.512Z,43.07
2023-01-02T11:40:59.640Z,46.53
2023-01-02T11:43:52.085Z,41.90
2023-01-02T11:46:27.501Z,43.73
2023-01-02T11:48:58.696Z,43.20
2023-01-02T11:51:27.771Z,38.63
2023-01-02T11:53:55.774Z,41.73
2023-01-02T11:56:26.360Z,41.97
2023-01-02T11:58:56.136Z,45.43
2023-01-02T12:01:28.926Z,43.10
2023-01-02T12:03:58.485Z,41.47
2023-01-02T12:06:27.596Z,40.07
2023-01-02T12:09:06.020Z,40.67
2023-01-02T12:11:50.840Z,43.47
2023-01-02T12:14:20.005Z,39.57
2023-01-02T12:16:53.076Z,41.50
2023-01-02T12:19:36.162Z,40.47
2023-01-02T12:22:12.242Z,41.40
2023-01-02T12:25:04.107Z,41.33
2023-01-02T12:27:34.794Z,42.40
2023-01-02T12:30:04.924Z,38.97
2023-01-02T12:32:56.310Z,39.40
2023-01-02T12:35:34.421Z,35.53
2023-01-02T12:38:05.754Z,30.63
2023-01-02T12:40:41.767Z,34.23
2023-01-02T12:43:27.424Z,35.17
2023-01-02T12:45:59.289Z,31.63
2023-01-02T12:48:36.539Z,30.50
2023-01-02T12:51:07.225Z,27.27
2023-01-02T12:53:45.158Z,31.50
2023-01-02T12:56:16.473Z,28.97
2023-01-02T12:58:53.534Z,30.63
2023-01-02T13:01:22.922Z,29.13
2023-01-02T13:03:55.184Z,23.33
2023-01-02T13:06:44.836Z,24.27
2023-01-02T13:09:22.287Z,26.67
2023-01-02T13:11:53.215Z,21.63
2023-01-02T13:14:22.814Z,16.60
2023-01-02T13:16:51.848Z,18.03
2023-01-02T13:19:22.765Z,15.87
2023-01-02T13:21:52.957Z,17.53
2023-01-02T13:24:24.229Z,20.73
2023-01-02T13:26:52.739Z,19.23
2023-01-02T13:29:22.342Z,21.10
2023-01-02T13:31:50.861Z,21.73
2023-01-02T13:34:21.913Z,24.07
2023-01-02T13:36:50.719Z,22.27
2023-01-02T13:39:20.175Z,21.53
2023-01-02T13:42:09.774Z,23.13
2023-01-02T13:44:39.105Z,28.40
2023-01-02T13:47:11.265Z,31.30
2023-01-02T13:49:38.991Z,30.40
2023-01-02T13:52:06.730Z,29.80
2023-01-02T13:54:37.997Z,28.17
2023-01-02T13:57:26.439Z,27.10
2023-01-02T13:59:59.802Z,25.53
2023-01-02T14:02:27.814Z,26.83
2023-01-02T14:04:55.559Z,25.87
2023-01-02T14:07:38.173Z,27.53
2023-01-02T14:10:13.027Z,25.93
2023-01-02T14:12:42.500Z,30.10
2023-01-02T14:15:16.900Z,29.43
2023-01-02T14:17:48.590Z,30.43
2023-01-02T14:20:20.869Z,29.83
2023-01-02T14:22:50.166Z,35.37
2023-01-02T14:25:18.132Z,31.87
2023-01-02T14:27:50.641Z,28.63
2023-01-02T14:30:22.739Z,35.00
2023-01-02T14:32:52.904Z,33.53
2023-01-02T14:35:25.694Z,35.13
2023-01-02T14:37:54.902Z,30.57
2023-01-02T14:40:35.075Z,29.23
2023-01-02T14:43:21.571Z,29.90
2023-01-02T14:45:51.708Z,29.80
2023-01-02T14:48:22.964Z,33.00
2023-01-02T14:50:55.629Z,32.20
2023-01-02T14:53:24.410Z,30.70
2023-01-02T14:55:53.058Z,27.87
2023-01-02T14:58:24.892Z,29.00
2023-01-02T15:00:56.590Z,28.67
2023-01-02T15:03:31.646Z,34.10
2023-01-02T15:06:00.951Z,27.70
2023-01-02T15:08:34.093Z,26.80
2023-01-02T15:11:23.302Z,34.47
2023-01-02T15:14:05.242Z,34.57
2023-01-02T15:16:38.164Z,29.30
2023-01-02T15:19:07.030Z,30.50
2023-01-02T15:21:39.681Z,28.20
2023-01-02T15:24:14.772Z,29.20
2023-01-02T15:26:44.835Z,30.80
2023-01-02T15:29:20.890Z,37.40
2023-01-02T15:31:54.252Z,39.27
2023-01-02T15:34:25.631Z,36.97
2023-01-02T15:36:53.582Z,32.97
2023-01-02T15:39:22.512Z,38.07
2023-01-02T15:41:55.419Z,37.27
2023-01-02T15:44:41.844Z,45.93
2023-01-02T15:47:11.291Z,35.10
2023-01-02T15:49:40.711Z,47.30
2023-01-02T15:52:09.124Z,38.93
2023-01-02T15:54:37.512Z,46.40
2023-01-02T15:57:12.514Z,46.73
2023-01-02T15:59:40.522Z,54.93
2023-01-02T16:02:18.918Z,49.17
2023-01-02T16:04:48.453Z,51.33
2023-01-02T16:07:19.841Z,51.97
2023-01-02T16:09:52.673Z,56.67
2023-01-02T16:12:21.453Z,64.80
2023-01-02T16:14:53.055Z,52.73
2023-01-02T16:17:23.969Z,48.57
2023-01-02T16:19:58.679Z,68.03
2023-01-02T16:22:27.855Z,61.23
2023-01-02T16:24:59.506Z,62.63
2023-01-02T16:27:28.413Z,54.37
2023-01-02T16:29:56.342Z,55.00
2023-01-02T16:32:28.781Z,58.97
2023-01-02T16:35:02.277Z,59.27
2023-01-02T16:37:34.192Z,47.57
2023-01-02T16:41:00.350Z,42.13
2023-01-02T16:43:15.773Z,39.43
2023-01-02T16:45:43.633Z,39.40
2023-01-02T16:48:14.040Z,38.17
2023-01-02T16:50:44.348Z,39.53
2023-01-02T16:53:14.997Z,38.50
2023-01-02T16:55:42.671Z,37.93
2023-01-02T16:58:10.309Z,42.90
2023-01-02T17:00:43.121Z,36.30
2023-01-02T17:03:14.932Z,45.40
2023-01-02T17:05:45.394Z,46.87
2023-01-02T17:08:13.007Z,49.00
2023-01-02T17:10:41.333Z,50.13
2023-01-02T17:13:09.271Z,39.20
2023-01-02T17:15:36.916Z,39.23
2023-01-02T17:18:04.956Z,43.17
2023-01-02T17:20:32.687Z,37.07
2023-01-02T17:23:01.996Z,47.97
2023-01-02T17:25:29.692Z,42.57
2023-01-02T17:27:57.404Z,39.53
2023-01-02T17:30:25.907Z,45.93
2023-01-02T17:32:57.321Z,49.53
2023-01-02T17:35:27.772Z,46.87
2023-01-02T17:37:55.444Z,52.70
2023-01-02T17:40:24.541Z,48.50
2023-01-02T17:42:52.173Z,49.23
2023-01-02T17:45:20.080Z,46.80
2023-01-02T17:48:02.122Z,47.03
2023-01-02T17:50:32.423Z,45.03
2023-01-02T17:53:00.312Z,50.50
2023-01-02T17:55:29.359Z,56.27
2023-01-02T17:57:57.032Z,45.50
2023-01-02T18:00:24.754Z,54.00
2023-01-02T18:02:53.218Z,47.37
2023-01-02T18:05:22.100Z,59.57
2023-01-02T18:07:49.782Z,52.97
2023-01-02T18:10:20.411Z,53.60
2023-01-02T18:12:50.303Z,57.57
2023-01-02T18:15:18.673Z,68.83
2023-01-02T18:17:46.353Z,54.90
2023-01-02T18:20:15.528Z,47.83
2023-01-02T18:22:48.958Z,39.13
2023-01-02T18:25:19.577Z,45.53
2023-01-02T18:27:47.640Z,54.20
2023-01-02T18:30:18.757Z,39.13
2023-01-02T18:32:46.861Z,60.60
2023-01-02T18:35:37.912Z,60.57
2023-01-02T18:38:07.588Z,59.63
2023-01-02T18:40:35.559Z,54.07
2023-01-02T18:43:15.150Z,52.03
2023-01-02T18:45:44.278Z,53.50
2023-01-02T18:48:15.368Z,55.60
2023-01-02T18:50:46.507Z,56.07
2023-01-02T18:53:17.022Z,60.60
2023-01-02T18:55:44.727Z,49.43
2023-01-02T18:58:36.478Z,59.20
2023-01-02T19:01:16.037Z,50.97
2023-01-02T19:03:46.196Z,55.80
2023-01-02T19:06:17.894Z,53.13
2023-01-02T19:08:45.576Z,52.37
2023-01-02T19:11:29.497Z,43.83
2023-01-02T19:13:59.036Z,49.83
2023-01-02T19:16:28.222Z,38.80
2023-01-02T19:18:56.407Z,43.70
2023-01-02T19:21:27.918Z,39.47
2023-01-02T19:23:58.464Z,56.40
2023-01-02T19:26:29.850Z,44.47
2023-01-02T19:29:00.976Z,54.13
2023-01-02T19:31:37.459Z,47.83
2023-01-02T19:34:05.303Z,47.40
2023-01-02T19:36:36.936Z,55.83
2023-01-02T19:39:12.763Z,52.33
2023-01-02T19:41:58.012Z,48.87
2023-01-02T19:44:25.744Z,48.67
2023-01-02T19:46:54.844Z,46.97
2023-01-02T19:49:22.466Z,53.30
2023-01-02T19:51:50.271Z,58.67
2023-01-02T19:54:17.943Z,122.30
2023-01-02T19:56:45.591Z,103.53
2023-01-02T19:59:13.313Z,111.97
2023-01-02T20:01:41.062Z,131.63
2023-01-02T20:04:10.093Z,142.00
2023-01-02T20:06:37.853Z,163.63
2023-01-02T20:09:05.480Z,155.40
2023-01-02T20:11:50.836Z,158.63
2023-01-02T20:14:18.464Z,150.87
2023-01-02T20:16:46.148Z,123.63
2023-01-02T20:19:15.183Z,121.83
2023-01-02T20:21:42.885Z,142.70
2023-01-02T20:24:10.489Z,122.70
2023-01-02T20:26:38.189Z,142.20
2023-01-02T20:29:05.935Z,143.00
2023-01-02T20:31:33.653Z,127.53
2023-01-02T20:34:01.435Z,134.63
2023-01-02T20:36:30.441Z,125.80
2023-01-02T20:38:58.096Z,130.27
2023-01-02T20:41:25.776Z,126.97
2023-01-02T20:43:53.441Z,130.57
2023-01-02T20:46:21.091Z,123.17
2023-01-02T20:48:48.802Z,114.50
2023-01-02T20:51:16.450Z,121.47
2023-01-02T20:53:45.461Z,124.60
2023-01-02T20:56:13.177Z,118.50
2023-01-02T20:58:40.797Z,117.27
2023-01-02T21:01:08.411Z,122.87
2023-01-02T21:03:36.253Z,117.63
2023-01-02T21:06:04.044Z,132.83
2023-01-02T21:08:32.189Z,125.33
2023-01-02T21:11:01.202Z,124.53
2023-01-02T21:13:28.864Z,126.10
2023-01-02T21:15:58.038Z,111.30
2023-01-02T21:18:26.490Z,111.83
2023-01-02T21:20:55.072Z,100.87
2023-01-02T21:23:23.436Z,110.33
2023-01-02T21:25:51.569Z,88.07
2023-01-02T21:28:21.282Z,87.00
2023-01-02T21:30:49.234Z,102.73
2023-01-02T21:33:17.675Z,94.30
2023-01-02T21:35:47.007Z,109.17
2023-01-02T21:38:15.005Z,105.27
2023-01-02T21:40:42.838Z,96.83
2023-01-02T21:43:10.962Z,103.73
2023-01-02T21:45:40.015Z,104.27
2023-01-02T21:48:08.189Z,87.90
2023-01-02T21:50:35.881Z,75.23
2023-01-02T21:53:03.504Z,83.57
2023-01-02T21:55:31.206Z,89.40
2023-01-02T21:58:15.103Z,95.37
2023-01-02T22:00:44.573Z,89.50
2023-01-02T22:03:12.456Z,90.03
2023-01-02T22:05:40.318Z,90.67
2023-01-02T22:08:08.272Z,67.33
2023-01-02T22:10:35.922Z,102.80
2023-01-02T22:13:03.550Z,96.90
2023-01-02T22:15:31.356Z,95.77
2023-01-02T22:18:00.393Z,82.17
2023-01-02T22:20:28.471Z,97.13
2023-01-02T22:22:56.144Z,90.00
2023-01-02T22:25:23.962Z,94.17
2023-01-02T22:27:51.636Z,97.00
2023-01-02T22:30:23.392Z,102.93
2023-01-02T22:32:55.698Z,110.73
2023-01-02T22:35:24.798Z,92.80
2023-01-02T22:37:52.476Z,96.40
2023-01-02T22:40:20.351Z,97.37
2023-01-02T22:43:01.038Z,103.57
2023-01-02T22:45:31.733Z,108.20
2023-01-02T22:48:00.333Z,103.23
2023-01-02T22:50:31.813Z,114.00
2023-01-02T22:53:00.036Z,108.20
2023-01-02T22:55:27.664Z,119.00
2023-01-02T22:57:55.287Z,108.73
2023-01-02T23:00:23.561Z,122.00
2023-01-02T23:02:51.577Z,128.60
2023-01-02T23:05:20.113Z,128.57
2023-01-02T23:07:50.081Z,129.07
2023-01-02T23:10:17.918Z,137.23
2023-01-02T23:12:45.565Z,134.80
2023-01-02T23:15:14.114Z,133.20
2023-01-02T23:17:58.942Z,137.70
2023-01-02T23:20:27.175Z,141.23
2023-01-02T23:22:56.726Z,137.17
2023-01-02T23:25:24.371Z,150.80
2023-01-02T23:27:51.975Z,137.93
2023-01-02T23:30:19.691Z,140.47
2023-01-02T23:32:47.359Z,145.37
2023-01-02T23:35:14.978Z,144.63
2023-01-02T23:37:42.695Z,136.60
2023-01-02T23:40:12.767Z,142.27
2023-01-02T23:42:40.384Z,141.67
2023-01-02T23:45:08.536Z,139.93
2023-01-02T23:47:36.186Z,128.73
2023-01-02T23:50:03.808Z,121.23
2023-01-02T23:52:31.565Z,124.83
2023-01-02T23:54:59.173Z,119.60
2023-01-02T23:57:28.458Z,124.63
2023-01-02T23:59:56.253Z,121.07
